Effective Sunday, March 17, 2024, the National Weather Service National Data Buoy Center will discontinue its Dial-A-Buoy Interactive Voice Response system. For more information, see Service Change Notice 24-06 (PDF).

Station BEXA2 - Bethel, AK Image indicating link to RSS feed of recent meteorological observations for station BEXA2


Conditions at BEXA2 as of
(10:44 pm AKST on 02/28/2024)
0744 GMT on 02/29/2024:
     

Click on the graph icon in the table below to see a time series plot of the last five days of that observation.

5-day plot - Wind Direction Wind Direction (WDIR): NW ( 310 deg true )
5-day plot - Wind Speed Wind Speed (WSPD): 10 kts
5-day plot - Wind Gust Wind Gust (GST): 17 kts
5-day plot - Air Temperature Air Temperature (ATMP):-11.0 °F
5-day plot - Dew Point Dew Point (DEWP):-14.4 °F
5-day plot - Wind Chill Wind Chill (CHILL):-30.8 °F
5-day plot - Wind Speed at 10 Meters Wind Speed at 10 meters (WSPD10M): 10 kts
5-day plot - Wind Speed at 20 Meters Wind Speed at 20 meters (WSPD20M): 10 kts
5-day plot -  Wind Speed, Wind Gust and Atmospheric Pressure Combined plot of Wind Speed, Gust, and Air Pressure
Previous observations
TIME
(AKST)
5-day plot - Wind Direction
WDIR
 
5-day plot - Wind Speed
WSPD
kts
5-day plot - Wind Gust
GST
kts
5-day plot - Wave Height
WVHT
ft
5-day plot - Dominant Wave Period
DPD
sec
5-day plot - Average Wave Period
APD
sec
5-day plot - Mean Wave Direction
MWD
 
5-day plot - Atmospheric Pressure
PRES
in
5-day plot - Pressure Tendency
PTDY
in
5-day plot - Air Temperature
ATMP
°F
5-day plot - Water Temperature
WTMP
°F
5-day plot - Dew Point
DEWP
°F
5-day plot - Salinity
SAL
psu
5-day plot - Visibility
VIS
nmi
5-day plot - Tide (above MLLW)
TIDE
ft
2024-02-28 10:34 pm NW 10 18-------10.5--13.7---
2024-02-28 10:24 pm NW 11 18-------10.1--13.4---
2024-02-28 10:14 pm NW 10 18------ -9.9--13.2---
2024-02-28 10:04 pm NW 10 16------ -9.8--13.0---
2024-02-28 09:54 pmWNW 11 20------ -9.4--12.6---
2024-02-28 09:44 pmWNW 12 18------ -9.0--12.3---
2024-02-28 09:34 pm NW 12 20------ -8.7--11.9---
2024-02-28 09:24 pmWNW 13 20------ -8.3--11.9---
2024-02-28 09:14 pm NW 13 22------ -8.3--11.9---
2024-02-28 09:04 pm NW 12 20------ -8.3--11.9---
2024-02-28 08:54 pmWNW 14 20------ -7.8--11.2---
2024-02-28 08:44 pmWNW 14 20------ -7.6--11.0---
2024-02-28 08:34 pm NW 13 22------ -7.4--11.0---
2024-02-28 08:24 pm NW 13 20------ -6.9--10.5---
2024-02-28 08:14 pm NW 12 19------ -6.7--10.3---
2024-02-28 08:04 pm NW 10 16------ -6.3- -9.9---
2024-02-28 07:54 pmWNW 11 16------ -5.8- -9.6---
2024-02-28 07:44 pm NW 13 19------ -5.6- -9.4---
2024-02-28 07:34 pm NW 13 21------ -5.3- -9.0---
2024-02-28 07:24 pm NW 11 20------ -5.1- -9.0---
2024-02-28 07:14 pm NW 10 17------ -4.7- -8.9---
2024-02-28 07:04 pm NW 9 16------ -4.5- -8.7---
2024-02-28 06:54 pm NW 10 15------ -4.2- -8.3---
2024-02-28 06:44 pmWNW 10 17------ -3.5- -7.6---
2024-02-28 06:34 pm NW 11 18------ -2.9- -7.1---
2024-02-28 06:24 pm NW 11 19------ -2.6- -6.9---
2024-02-28 06:14 pm NW 11 17------ -2.2- -6.3---
2024-02-28 06:04 pm NW 10 18------ -1.7- -5.8---
2024-02-28 05:54 pm NW 12 21------ -1.5- -5.6---
2024-02-28 05:44 pmWNW 12 19------ -0.9- -5.1---
2024-02-28 05:34 pm NW 11 17------ -0.6- -4.7---
2024-02-28 05:24 pmWNW 12 18------ -0.2- -4.2---
2024-02-28 05:14 pm NW 10 16------ 0.3- -3.8---
2024-02-28 05:04 pm NW 12 19------ 0.5- -3.6---
2024-02-28 04:54 pm NW 9 15------ 1.2- -2.9---
2024-02-28 04:44 pm NW 11 17------ 1.4- -2.9---
2024-02-28 04:34 pm NW 12 20------ 1.6- -2.6---
2024-02-28 04:24 pm NW 12 19------ 1.9- -2.4---
2024-02-28 04:14 pmWNW 12 19------ 2.5- -2.0---
2024-02-28 04:04 pmWNW 11 17------ 3.0- -1.8---
2024-02-28 03:54 pm NW 9 16------ 3.6- -1.7---
2024-02-28 03:44 pm NW 11 18------ 3.7- -1.3---
2024-02-28 03:34 pm NW 11 19------ 3.9- -0.8---
2024-02-28 03:24 pmWNW 11 21------ 4.3- 0.1---
2024-02-28 03:14 pm NW 10 16------ 4.5- 0.3---
2024-02-28 02:54 pm NW 8 16------ 4.6- 0.5---
2024-02-28 02:44 pm NW 9 15------ 4.5- 0.5---
2024-02-28 02:34 pmWNW 7 13------ 4.1- 0.7---
2024-02-28 02:24 pmWNW 7 13------ 3.9- 0.5---
2024-02-28 02:14 pm NW 7 11------ 3.7- 0.1---
2024-02-28 02:04 pm NW 7 11------ 3.6- -0.2---
2024-02-28 01:54 pmWNW 8 14------ 3.4- -0.4---
2024-02-28 01:44 pmWNW 9 14------ 3.2- -0.2---
2024-02-28 01:34 pmWNW 8 13------ 3.2- -0.2---
2024-02-28 01:14 pmWNW 9 14------ 2.5- -0.8---
2024-02-28 01:04 pmWNW 9 14------ 2.1- -1.1---
2024-02-28 12:54 pmWNW 9 14------ 1.8- -1.5---
2024-02-28 12:44 pmWNW 8 12------ 1.6- -1.8---
2024-02-28 12:34 pmWNW 8 13------ 1.0- -2.2---
2024-02-28 12:24 pmWNW 9 16------ 0.7- -2.6---
2024-02-28 12:14 pmWNW 8 13------ 0.5- -2.9---
2024-02-28 12:04 pmWNW 9 16------ -0.4- -3.6---
2024-02-28 11:54 am W 8 13------ -0.8- -4.0---
2024-02-28 11:44 am W 9 14------ -1.3- -4.5---
2024-02-28 11:34 am W 8 12------ -1.7- -4.7---
2024-02-28 11:24 am W 8 13------ -2.0- -5.1---
2024-02-28 11:14 am W 10 15------ -2.2- -5.1---
2024-02-28 11:04 am W 9 14------ -2.2- -5.1---
2024-02-28 10:54 am W 9 13------ -2.6- -5.4---
2024-02-28 10:44 am W 9 16------ -2.7- -5.6---
2024-02-28 10:34 am W 8 13------ -3.1- -6.0---
2024-02-28 10:24 amWNW 8 14------ -3.3- -6.2---
2024-02-28 10:14 am W 7 12------ -3.5- -6.3---
2024-02-28 10:04 amWNW 7 10------ -3.6- -6.5---
2024-02-28 09:54 amWNW 6 10------ -4.0- -6.9---
2024-02-28 09:44 amWNW 6 9------ -4.2- -7.1---
2024-02-28 09:34 amWNW 6 9------ -4.5- -7.4---
2024-02-28 09:24 am W 6 9------ -4.2- -7.1---
2024-02-28 09:14 amWNW 6 10------ -4.2- -7.1---
2024-02-28 09:04 amWNW 7 10------ -4.2- -7.1---
2024-02-28 08:54 amWNW 6 9------ -4.0- -6.9---
2024-02-28 08:44 amWNW 6 10------ -4.0- -6.9---
2024-02-28 08:34 amWNW 7 12------ -3.8- -6.7---
2024-02-28 08:24 amWNW 7 12------ -3.6- -6.5---
2024-02-28 08:14 amWNW 8 12------ -3.5- -6.3---
2024-02-28 08:04 amWNW 7 12------ -3.1- -6.0---
2024-02-28 07:54 am NW 7 11------ -2.7- -5.6---
2024-02-28 07:44 amWNW 7 10------ -2.4- -5.3---
2024-02-28 07:34 amWNW 7 10------ -2.4- -5.3---
2024-02-28 07:24 am NW 8 13------ -2.6- -5.3---
2024-02-28 07:14 amWNW 9 15------ -2.7- -5.4---
2024-02-28 07:04 amWNW 10 14------ -2.9- -5.6---
2024-02-28 06:54 amWNW 9 15------ -3.1- -5.8---
2024-02-28 06:44 amWNW 10 15------ -3.3- -6.0---
2024-02-28 06:34 amWNW 9 14------ -3.3- -6.0---
2024-02-28 06:24 amWNW 9 15------ -3.1- -5.8---
2024-02-28 06:14 amWNW 9 14------ -2.9- -5.6---
2024-02-28 06:04 amWNW 9 14------ -2.9- -5.6---
2024-02-28 05:54 amWNW 9 15------ -3.3- -6.0---
2024-02-28 05:44 amWNW 9 15------ -3.6- -6.3---
2024-02-28 05:34 amWNW 8 14------ -3.6- -6.3---
2024-02-28 05:24 amWNW 8 13------ -4.0- -6.7---
2024-02-28 05:14 amWNW 7 10------ -3.8- -6.5---
2024-02-28 05:04 amWNW 7 11------ -3.8- -6.5---
2024-02-28 04:54 amWNW 8 14------ -4.0- -6.5---
2024-02-28 04:44 amWNW 7 11------ -4.5- -7.2---
2024-02-28 04:34 amWNW 8 12------ -4.2- -6.9---
2024-02-28 04:24 amWNW 9 13------ -4.2- -6.5---
2024-02-28 04:14 amWNW 9 14------ -4.4- -6.9---
2024-02-28 04:04 amWNW 10 16------ -4.5- -7.1---
2024-02-28 03:54 amWNW 9 14------ -4.7- -7.4---
2024-02-28 03:44 am NW 9 14------ -4.7- -7.4---
2024-02-28 03:34 amWNW 10 15------ -4.5- -7.4---
2024-02-28 03:24 amWNW 10 16------ -4.5- -7.4---
2024-02-28 03:14 amWNW 10 17------ -4.4- -7.4---
2024-02-28 02:54 amWNW 10 16------ -4.7- -7.8---
2024-02-28 02:44 am NW 8 15------ -4.9- -8.1---
2024-02-28 02:34 amWNW 9 18------ -5.3- -8.5---
2024-02-28 02:24 am NW 7 14------ -5.8- -9.2---
2024-02-28 02:14 am NW 8 13------ -5.6- -9.0---
2024-02-28 02:04 am NW 8 13------ -5.6- -8.9---
2024-02-28 01:54 amWNW 7 11------ -5.1- -8.3---
2024-02-28 01:44 amNNW 4 8------ -4.7- -8.0---
2024-02-28 01:34 am NW 5 10------ -4.5- -7.6---
2024-02-28 01:24 amNNW 5 6------ -4.9- -8.0---
2024-02-28 01:14 amNNW 5 8------ -5.1- -8.1---
2024-02-28 01:04 amNNW 6 9------ -5.1- -8.5---
2024-02-28 12:54 am N 8 12------ -4.7- -8.0---
2024-02-28 12:34 amNNE 4 6------ -5.4- -8.5---
2024-02-28 12:24 amNNW 3 6------ -5.4- -8.5---
2024-02-28 12:15 amNNW 5 9------ -5.3- -8.3---
2024-02-28 12:04 amNNW 7 14------ -5.4- -8.5---
2024-02-27 11:54 pmNNW 9 14------ -5.3- -8.3---
2024-02-27 11:44 pm NW 9 16------ -5.3- -8.3---
2024-02-27 11:34 pm NW 9 17------ -4.7- -8.1---
2024-02-27 11:24 pm NW 10 17------ -4.4- -7.8---
2024-02-27 11:14 pm NW 11 18------ -4.4- -7.6---
2024-02-27 11:04 pm NW 10 16------ -4.7- -8.0---
2024-02-27 10:54 pm NW 10 16------ -4.2- -7.6---